sensor_id;sensor_type;location;lat;lon;timestamp;pressure;altitude;pressure_sealevel;temperature
68745;BMP180;66104;45.456;11.064;2023-04-03T00:00:38;100342.00;;;13.30
68745;BMP180;66104;45.456;11.064;2023-04-03T00:03:15;100341.40;;;13.20
68745;BMP180;66104;45.456;11.064;2023-04-03T00:05:52;100337.60;;;13.20
68745;BMP180;66104;45.456;11.064;2023-04-03T00:08:29;100337.80;;;13.10
68745;BMP180;66104;45.456;11.064;2023-04-03T00:11:06;100339.60;;;13.00
68745;BMP180;66104;45.456;11.064;2023-04-03T00:13:43;100338.00;;;12.90
68745;BMP180;66104;45.456;11.064;2023-04-03T00:16:19;100336.60;;;12.80
68745;BMP180;66104;45.456;11.064;2023-04-03T00:18:55;100336.80;;;12.80
68745;BMP180;66104;45.456;11.064;2023-04-03T00:21:32;100336.40;;;12.70
68745;BMP180;66104;45.456;11.064;2023-04-03T00:24:10;100325.00;;;12.70
68745;BMP180;66104;45.456;11.064;2023-04-03T00:26:46;100326.80;;;12.70
68745;BMP180;66104;45.456;11.064;2023-04-03T00:29:23;100321.80;;;12.62
68745;BMP180;66104;45.456;11.064;2023-04-03T00:31:59;100320.20;;;12.60
68745;BMP180;66104;45.456;11.064;2023-04-03T00:34:36;100316.80;;;12.60
68745;BMP180;66104;45.456;11.064;2023-04-03T00:37:12;100317.00;;;12.56
68745;BMP180;66104;45.456;11.064;2023-04-03T00:39:49;100319.00;;;12.50
68745;BMP180;66104;45.456;11.064;2023-04-03T00:42:26;100315.40;;;12.50
68745;BMP180;66104;45.456;11.064;2023-04-03T00:45:35;100316.80;;;12.50
68745;BMP180;66104;45.456;11.064;2023-04-03T00:48:16;100316.80;;;12.40
68745;BMP180;66104;45.456;11.064;2023-04-03T00:50:52;100317.40;;;12.40
68745;BMP180;66104;45.456;11.064;2023-04-03T00:53:35;100316.40;;;12.38
68745;BMP180;66104;45.456;11.064;2023-04-03T00:56:16;100312.00;;;12.30
68745;BMP180;66104;45.456;11.064;2023-04-03T00:58:58;100313.60;;;12.40
68745;BMP180;66104;45.456;11.064;2023-04-03T01:01:35;100313.40;;;12.40
68745;BMP180;66104;45.456;11.064;2023-04-03T01:04:32;100313.60;;;12.40
68745;BMP180;66104;45.456;11.064;2023-04-03T01:07:12;100312.20;;;12.40
68745;BMP180;66104;45.456;11.064;2023-04-03T01:09:55;100313.00;;;12.40
68745;BMP180;66104;45.456;11.064;2023-04-03T01:12:35;100311.20;;;12.48
68745;BMP180;66104;45.456;11.064;2023-04-03T01:15:16;100308.40;;;12.46
68745;BMP180;66104;45.456;11.064;2023-04-03T01:17:55;100313.00;;;12.50
68745;BMP180;66104;45.456;11.064;2023-04-03T01:21:18;100311.80;;;12.50
68745;BMP180;66104;45.456;11.064;2023-04-03T01:24:14;100310.80;;;12.50
68745;BMP180;66104;45.456;11.064;2023-04-03T01:26:53;100312.80;;;12.44
68745;BMP180;66104;45.456;11.064;2023-04-03T01:29:30;100308.60;;;12.50
68745;BMP180;66104;45.456;11.064;2023-04-03T01:32:07;100307.80;;;12.48
68745;BMP180;66104;45.456;11.064;2023-04-03T01:34:42;100306.80;;;12.50
68745;BMP180;66104;45.456;11.064;2023-04-03T01:37:18;100307.40;;;12.50
68745;BMP180;66104;45.456;11.064;2023-04-03T01:39:56;100302.60;;;12.50
68745;BMP180;66104;45.456;11.064;2023-04-03T01:42:32;100297.60;;;12.50
68745;BMP180;66104;45.456;11.064;2023-04-03T01:45:12;100298.60;;;12.50
68745;BMP180;66104;45.456;11.064;2023-04-03T01:47:49;100296.40;;;12.50
68745;BMP180;66104;45.456;11.064;2023-04-03T01:50:25;100301.60;;;12.50
68745;BMP180;66104;45.456;11.064;2023-04-03T01:53:01;100304.20;;;12.50
68745;BMP180;66104;45.456;11.064;2023-04-03T01:55:38;100307.00;;;12.50
68745;BMP180;66104;45.456;11.064;2023-04-03T01:58:14;100306.40;;;12.50
68745;BMP180;66104;45.456;11.064;2023-04-03T02:00:53;100307.60;;;12.50
68745;BMP180;66104;45.456;11.064;2023-04-03T02:03:29;100301.40;;;12.50
68745;BMP180;66104;45.456;11.064;2023-04-03T02:06:07;100301.80;;;12.50
68745;BMP180;66104;45.456;11.064;2023-04-03T02:08:45;100299.40;;;12.50
68745;BMP180;66104;45.456;11.064;2023-04-03T02:11:21;100300.20;;;12.50
68745;BMP180;66104;45.456;11.064;2023-04-03T02:13:59;100298.00;;;12.40
68745;BMP180;66104;45.456;11.064;2023-04-03T02:16:36;100299.40;;;12.40
68745;BMP180;66104;45.456;11.064;2023-04-03T02:19:12;100299.60;;;12.40
68745;BMP180;66104;45.456;11.064;2023-04-03T02:21:49;100291.20;;;12.40
68745;BMP180;66104;45.456;11.064;2023-04-03T02:24:26;100291.60;;;12.40
68745;BMP180;66104;45.456;11.064;2023-04-03T02:27:05;100290.40;;;12.40
68745;BMP180;66104;45.456;11.064;2023-04-03T02:29:41;100294.00;;;12.40
68745;BMP180;66104;45.456;11.064;2023-04-03T02:32:17;100290.60;;;12.32
68745;BMP180;66104;45.456;11.064;2023-04-03T02:34:54;100290.40;;;12.30
68745;BMP180;66104;45.456;11.064;2023-04-03T02:37:30;100293.40;;;12.30
68745;BMP180;66104;45.456;11.064;2023-04-03T02:40:09;100290.80;;;12.30
68745;BMP180;66104;45.456;11.064;2023-04-03T02:42:46;100289.40;;;12.30
68745;BMP180;66104;45.456;11.064;2023-04-03T02:45:24;100294.60;;;12.30
68745;BMP180;66104;45.456;11.064;2023-04-03T02:48:00;100292.80;;;12.20
68745;BMP180;66104;45.456;11.064;2023-04-03T02:50:37;100299.60;;;12.20
68745;BMP180;66104;45.456;11.064;2023-04-03T02:53:13;100299.20;;;12.20
68745;BMP180;66104;45.456;11.064;2023-04-03T02:55:51;100293.00;;;12.20
68745;BMP180;66104;45.456;11.064;2023-04-03T02:58:27;100292.00;;;12.20
68745;BMP180;66104;45.456;11.064;2023-04-03T03:01:05;100291.60;;;12.28
68745;BMP180;66104;45.456;11.064;2023-04-03T03:03:40;100291.20;;;12.30
68745;BMP180;66104;45.456;11.064;2023-04-03T03:06:19;100290.80;;;12.30
68745;BMP180;66104;45.456;11.064;2023-04-03T03:08:56;100295.60;;;12.30
68745;BMP180;66104;45.456;11.064;2023-04-03T03:11:31;100294.60;;;12.30
68745;BMP180;66104;45.456;11.064;2023-04-03T03:14:08;100299.60;;;12.20
68745;BMP180;66104;45.456;11.064;2023-04-03T03:16:45;100305.40;;;12.22
68745;BMP180;66104;45.456;11.064;2023-04-03T03:19:21;100302.20;;;12.28
68745;BMP180;66104;45.456;11.064;2023-04-03T03:21:58;100299.60;;;12.30
68745;BMP180;66104;45.456;11.064;2023-04-03T03:24:35;100294.60;;;12.30
68745;BMP180;66104;45.456;11.064;2023-04-03T03:27:11;100296.00;;;12.30
68745;BMP180;66104;45.456;11.064;2023-04-03T03:29:47;100294.40;;;12.30
68745;BMP180;66104;45.456;11.064;2023-04-03T03:32:24;100295.80;;;12.30
68745;BMP180;66104;45.456;11.064;2023-04-03T03:35:02;100301.00;;;12.30
68745;BMP180;66104;45.456;11.064;2023-04-03T03:37:37;100300.40;;;12.30
68745;BMP180;66104;45.456;11.064;2023-04-03T03:40:18;100307.40;;;12.30
68745;BMP180;66104;45.456;11.064;2023-04-03T03:42:55;100307.40;;;12.40
68745;BMP180;66104;45.456;11.064;2023-04-03T03:45:31;100311.40;;;12.40
68745;BMP180;66104;45.456;11.064;2023-04-03T03:48:09;100306.40;;;12.48
68745;BMP180;66104;45.456;11.064;2023-04-03T03:50:45;100308.80;;;12.50
68745;BMP180;66104;45.456;11.064;2023-04-03T03:53:22;100311.40;;;12.60
68745;BMP180;66104;45.456;11.064;2023-04-03T03:56:02;100315.40;;;12.70
68745;BMP180;66104;45.456;11.064;2023-04-03T03:58:39;100317.80;;;12.80
68745;BMP180;66104;45.456;11.064;2023-04-03T04:01:16;100324.40;;;12.80
68745;BMP180;66104;45.456;11.064;2023-04-03T04:03:53;100317.60;;;12.90
68745;BMP180;66104;45.456;11.064;2023-04-03T04:06:32;100320.60;;;12.98
68745;BMP180;66104;45.456;11.064;2023-04-03T04:09:11;100319.60;;;13.00
68745;BMP180;66104;45.456;11.064;2023-04-03T04:11:47;100321.00;;;13.00
68745;BMP180;66104;45.456;11.064;2023-04-03T04:14:24;100327.40;;;13.04
68745;BMP180;66104;45.456;11.064;2023-04-03T04:17:01;100323.20;;;13.08
68745;BMP180;66104;45.456;11.064;2023-04-03T04:19:37;100324.20;;;13.10
68745;BMP180;66104;45.456;11.064;2023-04-03T04:22:14;100326.40;;;13.10
68745;BMP180;66104;45.456;11.064;2023-04-03T04:24:50;100323.00;;;13.10
68745;BMP180;66104;45.456;11.064;2023-04-03T04:27:26;100321.20;;;13.10
68745;BMP180;66104;45.456;11.064;2023-04-03T04:30:03;100327.20;;;13.10
68745;BMP180;66104;45.456;11.064;2023-04-03T04:32:40;100319.80;;;13.14
68745;BMP180;66104;45.456;11.064;2023-04-03T04:35:17;100319.60;;;13.20
68745;BMP180;66104;45.456;11.064;2023-04-03T04:37:54;100328.60;;;13.20
68745;BMP180;66104;45.456;11.064;2023-04-03T04:40:30;100327.80;;;13.20
68745;BMP180;66104;45.456;11.064;2023-04-03T04:43:06;100332.80;;;13.18
68745;BMP180;66104;45.456;11.064;2023-04-03T04:45:43;100332.00;;;13.20
68745;BMP180;66104;45.456;11.064;2023-04-03T04:48:20;100333.20;;;13.20
68745;BMP180;66104;45.456;11.064;2023-04-03T04:50:56;100337.20;;;13.18
68745;BMP180;66104;45.456;11.064;2023-04-03T04:53:33;100338.20;;;13.14
68745;BMP180;66104;45.456;11.064;2023-04-03T04:56:11;100342.60;;;13.10
68745;BMP180;66104;45.456;11.064;2023-04-03T04:58:49;100342.40;;;13.10
68745;BMP180;66104;45.456;11.064;2023-04-03T05:01:25;100343.40;;;13.10
68745;BMP180;66104;45.456;11.064;2023-04-03T05:04:15;100342.20;;;13.10
68745;BMP180;66104;45.456;11.064;2023-04-03T05:06:53;100340.20;;;13.08
68745;BMP180;66104;45.456;11.064;2023-04-03T05:09:32;100343.80;;;13.00
68745;BMP180;66104;45.456;11.064;2023-04-03T05:12:10;100349.40;;;13.00
68745;BMP180;66104;45.456;11.064;2023-04-03T05:14:52;100347.60;;;13.00
68745;BMP180;66104;45.456;11.064;2023-04-03T05:17:28;100351.60;;;13.00
68745;BMP180;66104;45.456;11.064;2023-04-03T05:20:04;100353.80;;;13.00
68745;BMP180;66104;45.456;11.064;2023-04-03T05:22:42;100361.40;;;13.00
68745;BMP180;66104;45.456;11.064;2023-04-03T05:25:20;100359.20;;;13.00
68745;BMP180;66104;45.456;11.064;2023-04-03T05:27:59;100351.20;;;13.78
68745;BMP180;66104;45.456;11.064;2023-04-03T05:30:36;100357.60;;;14.80
68745;BMP180;66104;45.456;11.064;2023-04-03T05:33:13;100363.60;;;14.86
68745;BMP180;66104;45.456;11.064;2023-04-03T05:35:54;100368.60;;;14.60
68745;BMP180;66104;45.456;11.064;2023-04-03T05:38:34;100367.60;;;14.30
68745;BMP180;66104;45.456;11.064;2023-04-03T05:41:11;100376.00;;;14.18
68745;BMP180;66104;45.456;11.064;2023-04-03T05:43:49;100373.00;;;14.00
68745;BMP180;66104;45.456;11.064;2023-04-03T05:46:26;100374.00;;;13.90
68745;BMP180;66104;45.456;11.064;2023-04-03T05:49:03;100375.20;;;13.80
68745;BMP180;66104;45.456;11.064;2023-04-03T05:51:42;100379.00;;;13.80
68745;BMP180;66104;45.456;11.064;2023-04-03T05:54:28;100379.00;;;13.80
68745;BMP180;66104;45.456;11.064;2023-04-03T05:57:13;100381.40;;;13.80
68745;BMP180;66104;45.456;11.064;2023-04-03T05:59:49;100377.40;;;13.80
68745;BMP180;66104;45.456;11.064;2023-04-03T06:02:27;100384.00;;;13.80
68745;BMP180;66104;45.456;11.064;2023-04-03T06:05:04;100376.60;;;13.90
68745;BMP180;66104;45.456;11.064;2023-04-03T06:07:42;100379.80;;;14.00
68745;BMP180;66104;45.456;11.064;2023-04-03T06:10:18;100377.80;;;14.10
68745;BMP180;66104;45.456;11.064;2023-04-03T06:12:55;100379.40;;;14.20
68745;BMP180;66104;45.456;11.064;2023-04-03T06:15:31;100377.40;;;14.30
68745;BMP180;66104;45.456;11.064;2023-04-03T06:18:08;100381.80;;;14.40
68745;BMP180;66104;45.456;11.064;2023-04-03T06:20:45;100382.20;;;14.50
68745;BMP180;66104;45.456;11.064;2023-04-03T06:23:21;100383.60;;;14.50
68745;BMP180;66104;45.456;11.064;2023-04-03T06:25:57;100387.60;;;14.60
68745;BMP180;66104;45.456;11.064;2023-04-03T06:28:34;100388.60;;;14.50
68745;BMP180;66104;45.456;11.064;2023-04-03T06:31:11;100390.00;;;14.32
68745;BMP180;66104;45.456;11.064;2023-04-03T06:33:47;100390.40;;;14.30
68745;BMP180;66104;45.456;11.064;2023-04-03T06:36:25;100392.60;;;14.20
68745;BMP180;66104;45.456;11.064;2023-04-03T06:39:01;100388.20;;;14.20
68745;BMP180;66104;45.456;11.064;2023-04-03T06:41:37;100387.60;;;14.14
68745;BMP180;66104;45.456;11.064;2023-04-03T06:44:14;100393.00;;;14.20
68745;BMP180;66104;45.456;11.064;2023-04-03T06:46:51;100394.00;;;14.20
68745;BMP180;66104;45.456;11.064;2023-04-03T06:49:28;100397.40;;;14.30
68745;BMP180;66104;45.456;11.064;2023-04-03T06:52:05;100396.00;;;14.24
68745;BMP180;66104;45.456;11.064;2023-04-03T06:54:42;100393.80;;;14.28
68745;BMP180;66104;45.456;11.064;2023-04-03T06:57:19;100398.60;;;14.26
68745;BMP180;66104;45.456;11.064;2023-04-03T06:59:56;100394.00;;;14.20
68745;BMP180;66104;45.456;11.064;2023-04-03T07:02:32;100391.60;;;14.20
68745;BMP180;66104;45.456;11.064;2023-04-03T07:05:11;100391.20;;;14.28
68745;BMP180;66104;45.456;11.064;2023-04-03T07:07:48;100390.20;;;14.30
68745;BMP180;66104;45.456;11.064;2023-04-03T07:10:25;100396.40;;;14.32
68745;BMP180;66104;45.456;11.064;2023-04-03T07:13:02;100391.00;;;14.36
68745;BMP180;66104;45.456;11.064;2023-04-03T07:15:39;100397.40;;;14.30
68745;BMP180;66104;45.456;11.064;2023-04-03T07:18:15;100396.60;;;14.24
68745;BMP180;66104;45.456;11.064;2023-04-03T07:20:53;100392.60;;;14.20
68745;BMP180;66104;45.456;11.064;2023-04-03T07:23:31;100403.40;;;14.10
68745;BMP180;66104;45.456;11.064;2023-04-03T07:26:08;100400.40;;;14.10
68745;BMP180;66104;45.456;11.064;2023-04-03T07:28:45;100405.60;;;14.08
68745;BMP180;66104;45.456;11.064;2023-04-03T07:31:21;100406.60;;;14.00
68745;BMP180;66104;45.456;11.064;2023-04-03T07:33:58;100412.00;;;14.00
68745;BMP180;66104;45.456;11.064;2023-04-03T07:36:35;100414.80;;;14.00
68745;BMP180;66104;45.456;11.064;2023-04-03T07:39:10;100419.20;;;14.00
68745;BMP180;66104;45.456;11.064;2023-04-03T07:41:46;100424.60;;;14.10
68745;BMP180;66104;45.456;11.064;2023-04-03T07:44:23;100428.60;;;14.00
68745;BMP180;66104;45.456;11.064;2023-04-03T07:47:00;100431.40;;;14.00
68745;BMP180;66104;45.456;11.064;2023-04-03T07:49:37;100431.20;;;14.00
68745;BMP180;66104;45.456;11.064;2023-04-03T07:52:13;100430.40;;;14.00
68745;BMP180;66104;45.456;11.064;2023-04-03T07:54:49;100431.00;;;13.96
68745;BMP180;66104;45.456;11.064;2023-04-03T07:57:27;100427.00;;;13.90
68745;BMP180;66104;45.456;11.064;2023-04-03T08:00:04;100423.40;;;13.90
68745;BMP180;66104;45.456;11.064;2023-04-03T08:02:45;100431.80;;;13.90
68745;BMP180;66104;45.456;11.064;2023-04-03T08:05:24;100427.60;;;13.90
68745;BMP180;66104;45.456;11.064;2023-04-03T08:08:01;100431.40;;;13.90
68745;BMP180;66104;45.456;11.064;2023-04-03T08:10:38;100425.40;;;13.90
68745;BMP180;66104;45.456;11.064;2023-04-03T08:13:14;100427.60;;;14.00
68745;BMP180;66104;45.456;11.064;2023-04-03T08:15:51;100432.00;;;14.00
68745;BMP180;66104;45.456;11.064;2023-04-03T08:18:27;100428.00;;;14.10
68745;BMP180;66104;45.456;11.064;2023-04-03T08:21:08;100428.00;;;14.20
68745;BMP180;66104;45.456;11.064;2023-04-03T08:23:47;100427.60;;;14.30
68745;BMP180;66104;45.456;11.064;2023-04-03T08:26:25;100428.60;;;14.40
68745;BMP180;66104;45.456;11.064;2023-04-03T08:29:02;100427.40;;;14.40
68745;BMP180;66104;45.456;11.064;2023-04-03T08:31:39;100424.60;;;14.42
68745;BMP180;66104;45.456;11.064;2023-04-03T08:34:15;100433.80;;;14.40
68745;BMP180;66104;45.456;11.064;2023-04-03T08:36:52;100433.00;;;14.40
68745;BMP180;66104;45.456;11.064;2023-04-03T08:39:29;100432.80;;;14.40
68745;BMP180;66104;45.456;11.064;2023-04-03T08:42:18;100432.00;;;14.40
68745;BMP180;66104;45.456;11.064;2023-04-03T08:45:03;100430.20;;;14.44
68745;BMP180;66104;45.456;11.064;2023-04-03T08:47:50;100427.80;;;14.50
68745;BMP180;66104;45.456;11.064;2023-04-03T08:50:33;100426.40;;;14.50
68745;BMP180;66104;45.456;11.064;2023-04-03T08:53:14;100432.80;;;14.50
68745;BMP180;66104;45.456;11.064;2023-04-03T08:55:51;100436.20;;;14.40
68745;BMP180;66104;45.456;11.064;2023-04-03T08:58:28;100430.40;;;14.30
68745;BMP180;66104;45.456;11.064;2023-04-03T09:01:10;100431.40;;;14.30
68745;BMP180;66104;45.456;11.064;2023-04-03T09:03:50;100426.20;;;14.40
68745;BMP180;66104;45.456;11.064;2023-04-03T09:06:32;100423.00;;;14.50
68745;BMP180;66104;45.456;11.064;2023-04-03T09:09:21;100425.60;;;14.60
68745;BMP180;66104;45.456;11.064;2023-04-03T09:12:15;100435.20;;;14.70
68745;BMP180;66104;45.456;11.064;2023-04-03T09:15:05;100431.40;;;14.70
68745;BMP180;66104;45.456;11.064;2023-04-03T09:18:02;100434.00;;;14.60
68745;BMP180;66104;45.456;11.064;2023-04-03T09:20:49;100432.40;;;14.60
68745;BMP180;66104;45.456;11.064;2023-04-03T09:23:37;100421.00;;;14.52
68745;BMP180;66104;45.456;11.064;2023-04-03T09:26:21;100431.60;;;14.60
68745;BMP180;66104;45.456;11.064;2023-04-03T09:29:06;100420.80;;;14.70
68745;BMP180;66104;45.456;11.064;2023-04-03T09:31:46;100425.20;;;14.70
68745;BMP180;66104;45.456;11.064;2023-04-03T09:34:29;100418.60;;;14.70
68745;BMP180;66104;45.456;11.064;2023-04-03T09:37:07;100419.00;;;14.90
68745;BMP180;66104;45.456;11.064;2023-04-03T09:39:55;100415.20;;;14.90
68745;BMP180;66104;45.456;11.064;2023-04-03T09:42:34;100417.40;;;14.90
68745;BMP180;66104;45.456;11.064;2023-04-03T09:45:31;100420.20;;;14.70
68745;BMP180;66104;45.456;11.064;2023-04-03T09:48:17;100422.80;;;14.70
68745;BMP180;66104;45.456;11.064;2023-04-03T09:51:03;100423.20;;;14.70
68745;BMP180;66104;45.456;11.064;2023-04-03T09:53:41;100421.40;;;14.80
68745;BMP180;66104;45.456;11.064;2023-04-03T09:56:28;100415.00;;;14.90
68745;BMP180;66104;45.456;11.064;2023-04-03T09:59:17;100408.60;;;15.16
68745;BMP180;66104;45.456;11.064;2023-04-03T10:02:16;100397.80;;;15.40
68745;BMP180;66104;45.456;11.064;2023-04-03T10:04:57;100400.00;;;15.50
68745;BMP180;66104;45.456;11.064;2023-04-03T10:07:42;100400.20;;;15.60
68745;BMP180;66104;45.456;11.064;2023-04-03T10:10:33;100402.00;;;15.70
68745;BMP180;66104;45.456;11.064;2023-04-03T10:13:15;100399.40;;;15.70
68745;BMP180;66104;45.456;11.064;2023-04-03T10:16:01;100406.60;;;15.60
68745;BMP180;66104;45.456;11.064;2023-04-03T10:18:48;100403.80;;;15.70
68745;BMP180;66104;45.456;11.064;2023-04-03T10:21:38;100398.20;;;15.80
68745;BMP180;66104;45.456;11.064;2023-04-03T10:24:21;100404.20;;;15.80
68745;BMP180;66104;45.456;11.064;2023-04-03T10:27:07;100401.60;;;15.50
68745;BMP180;66104;45.456;11.064;2023-04-03T10:29:55;100402.00;;;15.30
68745;BMP180;66104;45.456;11.064;2023-04-03T10:32:54;100392.80;;;15.30
68745;BMP180;66104;45.456;11.064;2023-04-03T10:35:48;100394.60;;;15.30
68745;BMP180;66104;45.456;11.064;2023-04-03T10:38:42;100396.00;;;15.14
68745;BMP180;66104;45.456;11.064;2023-04-03T10:41:28;100395.00;;;15.08
68745;BMP180;66104;45.456;11.064;2023-04-03T10:44:19;100395.60;;;15.00
68745;BMP180;66104;45.456;11.064;2023-04-03T10:47:03;100388.80;;;15.00
68745;BMP180;66104;45.456;11.064;2023-04-03T10:49:54;100384.80;;;15.00
68745;BMP180;66104;45.456;11.064;2023-04-03T10:52:42;100386.60;;;15.00
68745;BMP180;66104;45.456;11.064;2023-04-03T10:55:35;100383.40;;;14.90
68745;BMP180;66104;45.456;11.064;2023-04-03T10:58:19;100384.60;;;14.88
68745;BMP180;66104;45.456;11.064;2023-04-03T11:01:02;100383.80;;;14.80
68745;BMP180;66104;45.456;11.064;2023-04-03T11:03:46;100388.40;;;14.80
68745;BMP180;66104;45.456;11.064;2023-04-03T11:06:28;100380.40;;;14.70
68745;BMP180;66104;45.456;11.064;2023-04-03T11:09:18;100380.40;;;14.70
68745;BMP180;66104;45.456;11.064;2023-04-03T11:12:00;100374.60;;;14.80
68745;BMP180;66104;45.456;11.064;2023-04-03T11:14:40;100373.20;;;14.80
68745;BMP180;66104;45.456;11.064;2023-04-03T11:17:30;100372.80;;;14.90
68745;BMP180;66104;45.456;11.064;2023-04-03T11:20:16;100361.20;;;15.00
68745;BMP180;66104;45.456;11.064;2023-04-03T11:23:00;100353.20;;;15.00
68745;BMP180;66104;45.456;11.064;2023-04-03T11:25:43;100354.20;;;15.08
68745;BMP180;66104;45.456;11.064;2023-04-03T11:28:20;100357.80;;;15.20
68745;BMP180;66104;45.456;11.064;2023-04-03T11:31:12;100350.80;;;15.30
68745;BMP180;66104;45.456;11.064;2023-04-03T11:34:00;100353.00;;;15.40
68745;BMP180;66104;45.456;11.064;2023-04-03T11:36:46;100348.40;;;15.40
68745;BMP180;66104;45.456;11.064;2023-04-03T11:39:29;100346.40;;;15.40
68745;BMP180;66104;45.456;11.064;2023-04-03T11:42:28;100343.60;;;15.40
68745;BMP180;66104;45.456;11.064;2023-04-03T11:45:33;100342.80;;;15.50
68745;BMP180;66104;45.456;11.064;2023-04-03T11:51:46;100337.00;;;15.78
68745;BMP180;66104;45.456;11.064;2023-04-03T11:54:50;100338.20;;;15.82
68745;BMP180;66104;45.456;11.064;2023-04-03T11:58:10;100337.40;;;15.82
68745;BMP180;66104;45.456;11.064;2023-04-03T12:01:45;100335.80;;;15.80
68745;BMP180;66104;45.456;11.064;2023-04-03T12:04:25;100328.20;;;15.90
68745;BMP180;66104;45.456;11.064;2023-04-03T12:07:20;100329.40;;;15.90
68745;BMP180;66104;45.456;11.064;2023-04-03T12:10:01;100319.40;;;15.80
68745;BMP180;66104;45.456;11.064;2023-04-03T12:12:41;100314.80;;;15.80
68745;BMP180;66104;45.456;11.064;2023-04-03T12:19:03;100314.80;;;15.90
68745;BMP180;66104;45.456;11.064;2023-04-03T12:22:15;100318.80;;;15.90
68745;BMP180;66104;45.456;11.064;2023-04-03T12:24:53;100309.40;;;15.80
68745;BMP180;66104;45.456;11.064;2023-04-03T12:27:43;100306.60;;;15.80
68745;BMP180;66104;45.456;11.064;2023-04-03T12:30:27;100298.60;;;15.80
68745;BMP180;66104;45.456;11.064;2023-04-03T12:33:31;100297.60;;;15.80
68745;BMP180;66104;45.456;11.064;2023-04-03T12:36:21;100292.20;;;15.80
68745;BMP180;66104;45.456;11.064;2023-04-03T12:39:22;100291.00;;;15.70
68745;BMP180;66104;45.456;11.064;2023-04-03T12:42:20;100287.60;;;15.62
68745;BMP180;66104;45.456;11.064;2023-04-03T12:45:15;100294.20;;;15.68
68745;BMP180;66104;45.456;11.064;2023-04-03T12:47:54;100293.40;;;15.60
68745;BMP180;66104;45.456;11.064;2023-04-03T12:50:33;100287.00;;;15.60
68745;BMP180;66104;45.456;11.064;2023-04-03T12:53:16;100282.60;;;15.50
68745;BMP180;66104;45.456;11.064;2023-04-03T12:56:17;100281.20;;;15.50
68745;BMP180;66104;45.456;11.064;2023-04-03T12:58:55;100281.20;;;15.40
68745;BMP180;66104;45.456;11.064;2023-04-03T13:01:31;100277.20;;;15.40
68745;BMP180;66104;45.456;11.064;2023-04-03T13:04:09;100283.80;;;15.30
68745;BMP180;66104;45.456;11.064;2023-04-03T13:06:48;100286.80;;;15.30
68745;BMP180;66104;45.456;11.064;2023-04-03T13:09:26;100281.00;;;15.30
68745;BMP180;66104;45.456;11.064;2023-04-03T13:12:10;100284.40;;;15.30
68745;BMP180;66104;45.456;11.064;2023-04-03T13:14:58;100278.00;;;15.30
68745;BMP180;66104;45.456;11.064;2023-04-03T13:17:43;100279.20;;;15.30
68745;BMP180;66104;45.456;11.064;2023-04-03T13:20:26;100282.40;;;15.30
68745;BMP180;66104;45.456;11.064;2023-04-03T13:23:05;100282.00;;;15.30
68745;BMP180;66104;45.456;11.064;2023-04-03T13:25:45;100279.40;;;15.40
68745;BMP180;66104;45.456;11.064;2023-04-03T13:28:26;100273.40;;;15.40
68745;BMP180;66104;45.456;11.064;2023-04-03T13:31:13;100274.40;;;15.42
68745;BMP180;66104;45.456;11.064;2023-04-03T13:34:05;100275.00;;;15.50
68745;BMP180;66104;45.456;11.064;2023-04-03T13:36:46;100269.40;;;15.50
68745;BMP180;66104;45.456;11.064;2023-04-03T13:39:32;100271.60;;;15.40
68745;BMP180;66104;45.456;11.064;2023-04-03T13:42:24;100271.00;;;15.40
68745;BMP180;66104;45.456;11.064;2023-04-03T13:48:22;100266.60;;;15.30
68745;BMP180;66104;45.456;11.064;2023-04-03T13:51:02;100267.40;;;15.30
68745;BMP180;66104;45.456;11.064;2023-04-03T13:53:47;100267.00;;;15.30
68745;BMP180;66104;45.456;11.064;2023-04-03T13:56:30;100269.20;;;15.20
68745;BMP180;66104;45.456;11.064;2023-04-03T13:59:24;100267.80;;;15.20
68745;BMP180;66104;45.456;11.064;2023-04-03T14:02:20;100260.00;;;15.10
68745;BMP180;66104;45.456;11.064;2023-04-03T14:05:00;100260.20;;;15.10
68745;BMP180;66104;45.456;11.064;2023-04-03T14:07:37;100255.20;;;15.00
68745;BMP180;66104;45.456;11.064;2023-04-03T14:10:18;100253.60;;;15.00
68745;BMP180;66104;45.456;11.064;2023-04-03T14:12:56;100253.40;;;15.00
68745;BMP180;66104;45.456;11.064;2023-04-03T14:15:34;100254.40;;;14.94
68745;BMP180;66104;45.456;11.064;2023-04-03T14:18:13;100254.40;;;14.90
68745;BMP180;66104;45.456;11.064;2023-04-03T14:20:50;100250.60;;;14.90
68745;BMP180;66104;45.456;11.064;2023-04-03T14:23:27;100251.80;;;14.90
68745;BMP180;66104;45.456;11.064;2023-04-03T14:26:04;100251.40;;;14.84
68745;BMP180;66104;45.456;11.064;2023-04-03T14:28:41;100242.60;;;14.82
68745;BMP180;66104;45.456;11.064;2023-04-03T14:31:19;100246.60;;;14.90
68745;BMP180;66104;45.456;11.064;2023-04-03T14:33:55;100248.60;;;14.80
68745;BMP180;66104;45.456;11.064;2023-04-03T14:36:32;100241.20;;;14.80
68745;BMP180;66104;45.456;11.064;2023-04-03T14:39:16;100234.40;;;14.80
68745;BMP180;66104;45.456;11.064;2023-04-03T14:41:52;100235.60;;;14.80
68745;BMP180;66104;45.456;11.064;2023-04-03T14:44:29;100236.80;;;14.80
68745;BMP180;66104;45.456;11.064;2023-04-03T14:47:08;100231.40;;;14.80
68745;BMP180;66104;45.456;11.064;2023-04-03T14:50:06;100233.60;;;14.88
68745;BMP180;66104;45.456;11.064;2023-04-03T14:52:44;100230.80;;;14.92
68745;BMP180;66104;45.456;11.064;2023-04-03T14:55:22;100232.60;;;15.00
68745;BMP180;66104;45.456;11.064;2023-04-03T14:57:59;100229.20;;;15.00
68745;BMP180;66104;45.456;11.064;2023-04-03T15:00:36;100230.80;;;15.10
68745;BMP180;66104;45.456;11.064;2023-04-03T15:03:18;100227.60;;;15.10
68745;BMP180;66104;45.456;11.064;2023-04-03T15:05:55;100232.40;;;15.10
68745;BMP180;66104;45.456;11.064;2023-04-03T15:08:33;100226.20;;;15.10
68745;BMP180;66104;45.456;11.064;2023-04-03T15:11:10;100225.80;;;15.10